Time;durP1;ratioP1;P1;durP2;ratioP2;P2;SDS_P1;SDS_P2;PMS_P1;PMS_P2;Temp;Humidity;BMP_temperature;BMP_pressure;BME280_temperature;BME280_humidity;BME280_pressure;Samples;Min_cycle;Max_cycle;Signal;HPM_P1;HPM_P2
2023/01/28 00:01:27;;;;;;;;;;;21.80;32.20;;;;;;5087723;28;19920;-73
2023/01/28 00:03:53;;;;;;;;;;;21.90;32.20;;;;;;5072291;28;20386;-74
2023/01/28 00:06:18;;;;;;;;;;;21.80;32.20;;;;;;5087672;28;20287;-74
2023/01/28 00:08:44;;;;;;;;;;;21.80;32.30;;;;;;5071965;28;20459;-74
2023/01/28 00:11:11;;;;;;;;;;;21.80;32.30;;;;;;5070687;28;19924;-74
2023/01/28 00:13:37;;;;;;;;;;;21.70;32.20;;;;;;5087659;28;19920;-75
2023/01/28 00:16:04;;;;;;;;;;;21.70;32.20;;;;;;5071772;28;20427;-75
2023/01/28 00:18:31;;;;;;;;;;;21.70;32.30;;;;;;5073659;28;19943;-75
2023/01/28 00:21:05;;;;;;;;;;;21.70;32.30;;;;;;5075480;28;19926;-74
2023/01/28 00:23:32;;;;;;;;;;;21.70;32.20;;;;;;5074217;28;19974;-74
2023/01/28 00:25:58;;;;;;;;;;;21.70;32.20;;;;;;5075387;28;19954;-73
2023/01/28 00:28:24;;;;;;;;;;;21.70;32.30;;;;;;5074081;28;20418;-74
2023/01/28 00:30:50;;;;;;;;;;;21.80;32.20;;;;;;5077204;28;19975;-74
2023/01/28 00:33:16;;;;;;;;;;;21.70;32.20;;;;;;5095602;28;19928;-74
2023/01/28 00:35:41;;;;;;;;;;;21.80;32.10;;;;;;5077366;28;19927;-74
2023/01/28 00:38:07;;;;;;;;;;;21.80;32.20;;;;;;5077555;28;19920;-74
2023/01/28 00:40:33;;;;;;;;;;;21.80;32.10;;;;;;5077225;28;20394;-74
2023/01/28 00:42:59;;;;;;;;;;;21.80;32.00;;;;;;5095294;28;19920;-73
2023/01/28 00:45:24;;;;;;;;;;;21.80;32.10;;;;;;5094393;28;20293;-74
2023/01/28 00:47:50;;;;;;;;;;;21.80;32.00;;;;;;5077075;28;20406;-74
2023/01/28 00:50:16;;;;;;;;;;;21.80;32.00;;;;;;5077095;28;19931;-75
2023/01/28 00:52:41;;;;;;;;;;;21.80;32.00;;;;;;5095266;28;19963;-74
2023/01/28 00:55:07;;;;;;;;;;;21.80;32.00;;;;;;5095180;28;19932;-73
2023/01/28 00:57:32;;;;;;;;;;;21.90;32.00;;;;;;5076939;28;20352;-73
2023/01/28 00:59:58;;;;;;;;;;;21.80;31.90;;;;;;5076904;28;19920;-73
2023/01/28 01:02:24;;;;;;;;;;;21.80;31.90;;;;;;5077144;28;19927;-74
2023/01/28 01:05:04;;;;;;;;;;;21.80;31.90;;;;;;5076999;28;19920;-74
2023/01/28 01:07:33;;;;;;;;;;;21.80;31.90;;;;;;5077019;28;19924;-74
2023/01/28 01:10:00;;;;;;;;;;;21.80;31.90;;;;;;5076807;28;19924;-74
2023/01/28 01:12:29;;;;;;;;;;;21.80;31.90;;;;;;5076593;28;20286;-73
2023/01/28 01:14:55;;;;;;;;;;;21.80;31.90;;;;;;5076968;28;19924;-74
2023/01/28 01:17:21;;;;;;;;;;;21.80;31.90;;;;;;5076547;28;19920;-75
2023/01/28 01:19:46;;;;;;;;;;;21.80;31.90;;;;;;5076468;28;19970;-75
2023/01/28 01:22:12;;;;;;;;;;;21.80;31.90;;;;;;5076659;28;19920;-75
2023/01/28 01:24:37;;;;;;;;;;;21.80;31.90;;;;;;5094534;28;19920;-74
2023/01/28 01:27:09;;;;;;;;;;;21.80;31.90;;;;;;5076397;28;20029;-75
2023/01/28 01:29:34;;;;;;;;;;;21.80;31.90;;;;;;5076107;28;20003;-74
2023/01/28 01:32:00;;;;;;;;;;;21.80;31.90;;;;;;5072763;28;20007;-74
2023/01/28 01:34:25;;;;;;;;;;;21.70;31.90;;;;;;5073117;28;20275;-75
2023/01/28 01:36:51;;;;;;;;;;;21.80;32.20;;;;;;5072142;28;20383;-75
2023/01/28 01:39:17;;;;;;;;;;;21.80;31.90;;;;;;5072706;28;19920;-74
2023/01/28 01:41:42;;;;;;;;;;;21.80;31.90;;;;;;5073970;28;19920;-74
2023/01/28 01:44:28;;;;;;;;;;;21.70;31.80;;;;;;5072695;28;19920;-74
2023/01/28 01:46:53;;;;;;;;;;;21.70;31.90;;;;;;5072563;28;19920;-74
2023/01/28 01:49:23;;;;;;;;;;;21.70;31.80;;;;;;5073161;28;19921;-74
2023/01/28 01:51:51;;;;;;;;;;;21.70;31.90;;;;;;5072303;28;20409;-74
2023/01/28 01:54:18;;;;;;;;;;;21.70;31.90;;;;;;5072447;28;19932;-74
2023/01/28 01:56:46;;;;;;;;;;;21.70;31.80;;;;;;5072764;28;19921;-74
2023/01/28 01:59:12;;;;;;;;;;;21.70;31.90;;;;;;5072334;28;20007;-74
2023/01/28 02:01:39;;;;;;;;;;;21.70;31.80;;;;;;5073909;28;20050;-75
2023/01/28 02:04:07;;;;;;;;;;;21.70;31.80;;;;;;5072505;28;19920;-75
2023/01/28 02:06:34;;;;;;;;;;;21.70;31.80;;;;;;5072582;28;19963;-74
2023/01/28 02:08:59;;;;;;;;;;;21.70;31.80;;;;;;5072193;28;19921;-73
2023/01/28 02:11:26;;;;;;;;;;;21.80;31.80;;;;;;5071938;28;19924;-73
2023/01/28 02:13:53;;;;;;;;;;;21.70;31.70;;;;;;5072416;28;19952;-74
2023/01/28 02:16:19;;;;;;;;;;;21.80;31.70;;;;;;5072251;28;19920;-75
2023/01/28 02:18:45;;;;;;;;;;;21.80;31.70;;;;;;5073277;28;19943;-76
2023/01/28 02:21:27;;;;;;;;;;;21.80;31.60;;;;;;5071919;28;19974;-75
2023/01/28 02:32:09;;;;;;;;;;;21.90;31.50;;;;;;5127462;27;1864831;-74
2023/01/28 02:34:37;;;;;;;;;;;21.80;31.50;;;;;;5174411;27;19918;-75
2023/01/28 02:37:08;;;;;;;;;;;21.90;31.60;;;;;;5174677;27;19918;-74
2023/01/28 02:39:36;;;;;;;;;;;21.90;31.50;;;;;;5174464;27;19919;-75
2023/01/28 02:42:05;;;;;;;;;;;21.80;31.50;;;;;;5159201;27;19919;-74
2023/01/28 02:44:31;;;;;;;;;;;21.80;31.50;;;;;;5171901;27;20339;-74
2023/01/28 02:49:46;;;;;;;;;;;21.90;31.60;;;;;;5152122;27;20006;-74
2023/01/28 02:54:57;;;;;;;;;;;21.80;31.40;;;;;;5125512;27;1920234;-74
2023/01/28 02:57:42;;;;;;;;;;;21.90;31.50;;;;;;5174665;27;19971;-73
2023/01/28 03:02:53;;;;;;;;;;;21.80;31.40;;;;;;5127566;27;1862907;-74
2023/01/28 03:05:24;;;;;;;;;;;21.90;31.40;;;;;;5174841;27;19957;-74
2023/01/28 03:07:50;;;;;;;;;;;21.80;31.40;;;;;;5174410;27;20384;-74
2023/01/28 03:10:17;;;;;;;;;;;21.80;31.40;;;;;;5193432;27;20313;-74
2023/01/28 03:38:17;;;;;;;;;;;21.60;31.50;;;;;;5152915;27;20357;-74
2023/01/28 03:40:54;;;;;;;;;;;21.60;31.50;;;;;;5152822;27;19930;-74
2023/01/28 03:43:19;;;;;;;;;;;21.50;31.50;;;;;;5153098;27;20114;-75
2023/01/28 03:45:50;;;;;;;;;;;21.50;31.60;;;;;;5152709;27;20017;-74
2023/01/28 03:48:19;;;;;;;;;;;21.50;31.70;;;;;;5153090;27;19919;-74
2023/01/28 03:50:45;;;;;;;;;;;21.50;31.60;;;;;;5152614;27;19919;-74
2023/01/28 03:53:11;;;;;;;;;;;21.50;31.60;;;;;;5152986;27;19922;-74
2023/01/28 03:55:36;;;;;;;;;;;21.60;31.70;;;;;;5152691;27;20297;-74
2023/01/28 03:58:04;;;;;;;;;;;21.50;31.60;;;;;;5152876;27;19919;-73
2023/01/28 04:00:29;;;;;;;;;;;21.50;31.60;;;;;;5152385;27;20140;-73
2023/01/28 04:02:55;;;;;;;;;;;21.60;31.70;;;;;;5152269;27;20005;-74
2023/01/28 04:05:21;;;;;;;;;;;21.50;31.60;;;;;;5171206;27;19964;-75
2023/01/28 04:07:47;;;;;;;;;;;21.60;31.70;;;;;;5171129;27;19972;-74
2023/01/28 04:10:13;;;;;;;;;;;21.60;31.60;;;;;;5170933;27;20335;-75
2023/01/28 04:12:38;;;;;;;;;;;21.50;31.50;;;;;;5165563;27;20302;-74
2023/01/28 04:15:13;;;;;;;;;;;21.60;31.50;;;;;;5138645;27;19932;-75
2023/01/28 04:17:43;;;;;;;;;;;21.70;31.60;;;;;;5138422;27;19925;-75
2023/01/28 04:20:09;;;;;;;;;;;21.60;31.50;;;;;;5138351;27;20002;-75
2023/01/28 04:22:34;;;;;;;;;;;21.70;31.50;;;;;;5138223;27;20018;-75
2023/01/28 04:25:00;;;;;;;;;;;21.60;31.50;;;;;;5138178;27;19948;-74
2023/01/28 04:27:25;;;;;;;;;;;21.70;31.50;;;;;;5138157;27;19944;-74
2023/01/28 04:29:51;;;;;;;;;;;21.70;31.50;;;;;;5137276;27;19919;-74
2023/01/28 04:32:16;;;;;;;;;;;21.60;31.50;;;;;;5138428;27;19923;-74
2023/01/28 04:34:42;;;;;;;;;;;21.70;31.50;;;;;;5138363;27;20285;-74
2023/01/28 04:37:08;;;;;;;;;;;21.60;31.40;;;;;;5137987;27;19926;-74
2023/01/28 04:39:33;;;;;;;;;;;21.70;31.50;;;;;;5137896;27;19929;-74
2023/01/28 04:41:59;;;;;;;;;;;21.60;31.40;;;;;;5137827;27;19927;-75
2023/01/28 04:44:24;;;;;;;;;;;21.70;31.40;;;;;;5138050;27;19919;-74
2023/01/28 04:46:50;;;;;;;;;;;21.60;31.40;;;;;;5156394;27;19919;-74
2023/01/28 04:49:15;;;;;;;;;;;21.70;31.50;;;;;;5156370;27;19919;-74
2023/01/28 04:51:41;;;;;;;;;;;21.70;32.20;;;;;;5137664;27;19919;-74
2023/01/28 04:54:06;;;;;;;;;;;21.70;31.40;;;;;;5138011;27;19919;-74
2023/01/28 04:56:32;;;;;;;;;;;21.70;31.50;;;;;;5137927;27;20286;-73
2023/01/28 04:58:57;;;;;;;;;;;21.60;31.40;;;;;;5137911;27;20289;-73
2023/01/28 05:01:23;;;;;;;;;;;21.70;31.40;;;;;;5133654;27;19927;-74
2023/01/28 05:03:49;;;;;;;;;;;21.70;31.40;;;;;;5134002;27;19919;-74
2023/01/28 05:06:15;;;;;;;;;;;21.60;31.40;;;;;;5133921;27;19926;-74
2023/01/28 05:08:40;;;;;;;;;;;21.60;31.40;;;;;;5134004;27;19919;-74
2023/01/28 05:11:06;;;;;;;;;;;21.60;31.40;;;;;;5134134;27;20002;-75
2023/01/28 05:13:32;;;;;;;;;;;21.60;31.40;;;;;;5133861;27;20346;-74
2023/01/28 05:15:57;;;;;;;;;;;21.70;31.50;;;;;;5133942;27;19919;-75
2023/01/28 05:18:23;;;;;;;;;;;21.60;31.30;;;;;;5133873;27;20018;-75
2023/01/28 05:20:48;;;;;;;;;;;21.60;31.30;;;;;;5133645;27;19974;-75
2023/01/28 05:23:14;;;;;;;;;;;21.60;31.30;;;;;;5133953;27;19920;-74
2023/01/28 05:25:39;;;;;;;;;;;21.60;31.40;;;;;;5132569;27;20374;-74
2023/01/28 05:28:05;;;;;;;;;;;21.60;31.40;;;;;;5133563;27;19920;-74
2023/01/28 05:30:30;;;;;;;;;;;21.60;31.40;;;;;;5133821;27;19935;-74
2023/01/28 05:32:56;;;;;;;;;;;21.60;31.40;;;;;;5133691;27;20370;-74
2023/01/28 05:35:22;;;;;;;;;;;21.60;31.40;;;;;;5133693;27;20169;-74
2023/01/28 05:37:47;;;;;;;;;;;21.70;31.40;;;;;;5133344;27;19920;-74
2023/01/28 05:40:13;;;;;;;;;;;21.60;31.30;;;;;;5133548;27;19926;-74
2023/01/28 05:42:38;;;;;;;;;;;21.60;31.40;;;;;;5133137;27;20390;-74
2023/01/28 05:45:04;;;;;;;;;;;21.60;31.30;;;;;;5136379;27;20006;-74
2023/01/28 05:47:30;;;;;;;;;;;21.60;31.20;;;;;;5153786;27;19966;-75
2023/01/28 05:49:58;;;;;;;;;;;21.70;31.30;;;;;;5154211;27;19918;-74
2023/01/28 05:52:24;;;;;;;;;;;21.70;31.30;;;;;;5135022;27;19923;-75
2023/01/28 05:54:49;;;;;;;;;;;21.70;31.20;;;;;;5132954;27;19968;-73
2023/01/28 05:57:15;;;;;;;;;;;21.70;31.20;;;;;;5134361;27;20026;-74
2023/01/28 05:59:40;;;;;;;;;;;21.70;31.20;;;;;;5132975;27;20211;-74
2023/01/28 06:02:06;;;;;;;;;;;21.70;31.20;;;;;;5132604;27;19923;-74
2023/01/28 06:04:31;;;;;;;;;;;21.70;31.20;;;;;;5133135;27;20334;-74
2023/01/28 06:06:57;;;;;;;;;;;21.70;31.20;;;;;;5134281;27;20417;-74
2023/01/28 06:09:22;;;;;;;;;;;21.70;31.10;;;;;;5133044;27;20109;-74
2023/01/28 06:11:49;;;;;;;;;;;21.70;31.10;;;;;;5132797;27;19919;-74
2023/01/28 06:14:14;;;;;;;;;;;21.70;31.10;;;;;;5134436;27;20060;-74
2023/01/28 06:16:40;;;;;;;;;;;21.70;31.10;;;;;;5132987;27;20394;-75
2023/01/28 06:19:05;;;;;;;;;;;21.70;31.10;;;;;;5132491;27;20450;-76
2023/01/28 06:21:31;;;;;;;;;;;21.70;31.10;;;;;;5132574;27;20048;-75
2023/01/28 06:23:56;;;;;;;;;;;21.70;31.00;;;;;;5132511;27;19966;-74
2023/01/28 06:26:22;;;;;;;;;;;21.70;31.10;;;;;;5132824;27;19920;-74
2023/01/28 06:28:48;;;;;;;;;;;21.70;31.10;;;;;;5132424;27;19920;-74
2023/01/28 06:31:13;;;;;;;;;;;21.70;31.00;;;;;;5132308;27;19926;-74
2023/01/28 06:33:39;;;;;;;;;;;21.70;31.10;;;;;;5132276;27;19919;-75
2023/01/28 06:36:07;;;;;;;;;;;21.70;31.00;;;;;;5132449;27;19920;-75
2023/01/28 06:38:33;;;;;;;;;;;21.70;31.00;;;;;;5132549;27;19927;-75
2023/01/28 06:40:59;;;;;;;;;;;21.70;31.10;;;;;;5132203;27;20329;-74
2023/01/28 06:43:29;;;;;;;;;;;21.70;31.00;;;;;;5132518;27;19926;-74
2023/01/28 06:45:55;;;;;;;;;;;21.80;31.00;;;;;;5132243;27;19920;-74
2023/01/28 06:48:21;;;;;;;;;;;21.70;31.00;;;;;;5133471;27;19919;-75
2023/01/28 06:50:47;;;;;;;;;;;21.70;31.10;;;;;;5132473;27;19919;-74
2023/01/28 06:53:13;;;;;;;;;;;21.70;31.10;;;;;;5132142;27;20373;-74
2023/01/28 06:55:39;;;;;;;;;;;21.60;31.00;;;;;;5132165;27;19919;-75
2023/01/28 06:58:07;;;;;;;;;;;21.70;31.10;;;;;;5132431;27;19980;-74
2023/01/28 07:00:33;;;;;;;;;;;21.60;31.00;;;;;;5132253;28;20058;-75
2023/01/28 07:02:58;;;;;;;;;;;21.60;31.10;;;;;;5129560;28;20383;-75
2023/01/28 07:05:25;;;;;;;;;;;21.50;31.20;;;;;;5133260;28;19923;-75
2023/01/28 07:07:50;;;;;;;;;;;21.50;31.20;;;;;;5132053;28;19923;-75
2023/01/28 07:10:16;;;;;;;;;;;21.50;31.20;;;;;;5131921;28;19919;-75
2023/01/28 07:12:42;;;;;;;;;;;21.40;31.30;;;;;;5131092;27;19942;-75
2023/01/28 07:15:09;;;;;;;;;;;21.40;31.30;;;;;;5131633;28;19926;-75
2023/01/28 07:17:37;;;;;;;;;;;21.50;31.40;;;;;;5133194;27;19978;-76
2023/01/28 07:20:04;;;;;;;;;;;21.50;31.40;;;;;;5131795;28;19920;-76
2023/01/28 07:22:32;;;;;;;;;;;21.40;31.40;;;;;;5131202;27;19923;-76
2023/01/28 07:24:59;;;;;;;;;;;21.50;31.40;;;;;;5131764;28;20014;-75
2023/01/28 07:27:25;;;;;;;;;;;21.50;31.30;;;;;;5131784;28;19923;-75
2023/01/28 07:29:51;;;;;;;;;;;21.50;31.30;;;;;;5132091;28;19926;-75
2023/01/28 07:32:16;;;;;;;;;;;21.50;31.30;;;;;;5132101;28;20001;-75
2023/01/28 07:34:42;;;;;;;;;;;21.50;31.30;;;;;;5132009;28;20429;-75
2023/01/28 07:37:08;;;;;;;;;;;21.50;31.20;;;;;;5131991;28;20247;-75
2023/01/28 07:39:33;;;;;;;;;;;21.60;31.30;;;;;;5130296;27;19937;-75
2023/01/28 07:41:59;;;;;;;;;;;21.60;31.20;;;;;;5132716;27;20031;-74
2023/01/28 07:44:25;;;;;;;;;;;21.60;31.20;;;;;;5132007;28;19920;-75
2023/01/28 07:46:51;;;;;;;;;;;21.60;31.20;;;;;;5132798;27;20004;-74
2023/01/28 07:49:16;;;;;;;;;;;21.60;31.20;;;;;;5134881;27;20064;-75
2023/01/28 07:51:44;;;;;;;;;;;21.60;31.20;;;;;;5135346;27;19927;-75
2023/01/28 07:54:09;;;;;;;;;;;21.60;31.20;;;;;;5136170;27;20112;-75
2023/01/28 07:56:35;;;;;;;;;;;21.60;31.20;;;;;;5135355;27;19919;-75
2023/01/28 07:59:00;;;;;;;;;;;21.60;31.20;;;;;;5135652;27;19920;-75
2023/01/28 08:01:26;;;;;;;;;;;21.60;31.20;;;;;;5134938;27;20002;-76
2023/01/28 08:03:51;;;;;;;;;;;21.60;31.10;;;;;;5135169;27;19919;-75
2023/01/28 08:06:17;;;;;;;;;;;21.60;31.20;;;;;;5135065;27;19926;-75
2023/01/28 08:08:42;;;;;;;;;;;21.60;31.20;;;;;;5135178;27;20084;-75
2023/01/28 08:11:09;;;;;;;;;;;21.60;31.20;;;;;;5135534;27;19974;-76
2023/01/28 08:13:35;;;;;;;;;;;21.60;31.20;;;;;;5135101;27;19920;-75
2023/01/28 08:16:01;;;;;;;;;;;21.60;31.10;;;;;;5135289;27;19968;-75
2023/01/28 08:18:26;;;;;;;;;;;21.60;31.20;;;;;;5134923;27;20002;-76
2023/01/28 08:20:55;;;;;;;;;;;21.60;31.10;;;;;;5136091;27;19986;-75
2023/01/28 08:23:21;;;;;;;;;;;21.70;31.20;;;;;;5134871;27;19919;-76
2023/01/28 08:25:47;;;;;;;;;;;21.70;31.20;;;;;;5135189;27;19920;-75
2023/01/28 08:28:13;;;;;;;;;;;21.60;31.20;;;;;;5134962;27;19924;-75
2023/01/28 08:30:39;;;;;;;;;;;21.60;31.10;;;;;;5135125;27;19920;-75
2023/01/28 08:33:05;;;;;;;;;;;21.60;31.20;;;;;;5135982;27;19919;-75
2023/01/28 08:35:31;;;;;;;;;;;21.60;31.20;;;;;;5134859;27;19920;-75
2023/01/28 08:37:58;;;;;;;;;;;21.60;31.20;;;;;;5134649;27;20348;-75
2023/01/28 08:40:23;;;;;;;;;;;21.60;31.20;;;;;;5135764;27;20374;-75
2023/01/28 08:42:51;;;;;;;;;;;21.60;31.20;;;;;;5134486;27;19949;-75
2023/01/28 08:45:17;;;;;;;;;;;21.50;31.20;;;;;;5138291;27;19941;-75
2023/01/28 08:47:59;;;;;;;;;;;21.60;31.20;;;;;;5134338;27;20370;-75
2023/01/28 08:50:26;;;;;;;;;;;21.50;31.20;;;;;;5134206;27;19919;-74
2023/01/28 08:52:55;;;;;;;;;;;21.60;31.30;;;;;;5135657;27;19919;-74
2023/01/28 08:55:21;;;;;;;;;;;21.60;31.40;;;;;;5134614;27;19966;-74
2023/01/28 08:57:46;;;;;;;;;;;21.60;31.40;;;;;;5134226;27;20409;-74
2023/01/28 09:00:15;;;;;;;;;;;21.50;31.30;;;;;;5135477;27;19919;-75
2023/01/28 09:02:41;;;;;;;;;;;21.60;31.40;;;;;;5150564;27;19971;-75
2023/01/28 09:05:09;;;;;;;;;;;21.50;31.30;;;;;;5136690;27;19923;-75
2023/01/28 09:07:35;;;;;;;;;;;21.60;31.40;;;;;;5136678;27;19927;-74
2023/01/28 09:10:01;;;;;;;;;;;21.60;31.40;;;;;;5137390;27;19919;-74
2023/01/28 09:12:27;;;;;;;;;;;21.60;31.40;;;;;;5137694;27;20025;-74
2023/01/28 09:14:52;;;;;;;;;;;21.60;31.30;;;;;;5137738;27;19967;-74
2023/01/28 09:17:18;;;;;;;;;;;21.60;31.30;;;;;;5137456;27;19923;-75
2023/01/28 09:19:44;;;;;;;;;;;21.60;31.30;;;;;;5137719;27;19919;-75
2023/01/28 09:22:10;;;;;;;;;;;21.60;31.20;;;;;;5137041;27;19926;-74
2023/01/28 09:24:38;;;;;;;;;;;21.60;31.20;;;;;;5137372;27;19927;-74
2023/01/28 09:27:04;;;;;;;;;;;21.60;31.20;;;;;;5137166;27;20357;-74
2023/01/28 09:29:29;;;;;;;;;;;21.70;31.20;;;;;;5137064;27;19930;-74
2023/01/28 09:31:55;;;;;;;;;;;21.70;31.20;;;;;;5155555;27;19919;-74
2023/01/28 09:34:20;;;;;;;;;;;21.70;31.30;;;;;;5137176;27;19968;-74
2023/01/28 09:36:46;;;;;;;;;;;21.70;31.30;;;;;;5137144;27;20277;-75
2023/01/28 09:39:11;;;;;;;;;;;21.70;31.30;;;;;;5155518;27;19926;-74
2023/01/28 09:41:57;;;;;;;;;;;21.70;31.20;;;;;;5136837;27;19923;-74
2023/01/28 09:47:15;;;;;;;;;;;21.70;31.20;;;;;;5138543;27;1893958;-74
2023/01/28 09:49:47;;;;;;;;;;;21.70;31.30;;;;;;5174762;27;19945;-74
2023/01/28 09:52:14;;;;;;;;;;;21.60;31.20;;;;;;5174774;27;19962;-73
2023/01/28 09:54:43;;;;;;;;;;;21.60;31.30;;;;;;5174300;27;20422;-73
2023/01/28 09:57:29;;;;;;;;;;;21.60;31.20;;;;;;5174323;27;19978;-73
2023/01/28 09:59:55;;;;;;;;;;;21.60;31.20;;;;;;5192830;27;20326;-73
2023/01/28 10:02:26;;;;;;;;;;;21.70;31.30;;;;;;5174527;27;20002;-74
2023/01/28 10:07:53;;;;;;;;;;;21.70;31.30;;;;;;5089967;28;19958;-73
2023/01/28 10:10:38;;;;;;;;;;;21.50;31.20;;;;;;5088845;28;19924;-74
2023/01/28 10:13:23;;;;;;;;;;;21.60;31.20;;;;;;5088332;28;20040;-74
2023/01/28 10:15:53;;;;;;;;;;;21.70;31.30;;;;;;5088260;28;19921;-73
2023/01/28 10:18:29;;;;;;;;;;;21.70;31.30;;;;;;5088450;28;19924;-74
2023/01/28 10:20:57;;;;;;;;;;;21.60;31.20;;;;;;5088603;28;20405;-74
2023/01/28 10:23:27;;;;;;;;;;;21.60;31.20;;;;;;5088652;28;19927;-74
2023/01/28 10:25:54;;;;;;;;;;;21.60;31.30;;;;;;5088414;28;20019;-73
2023/01/28 10:28:22;;;;;;;;;;;21.60;31.30;;;;;;5088290;28;19931;-73
2023/01/28 10:30:48;;;;;;;;;;;21.60;31.20;;;;;;5105426;28;19920;-74
2023/01/28 10:33:17;;;;;;;;;;;21.70;31.30;;;;;;5105188;28;20433;-73
2023/01/28 10:35:42;;;;;;;;;;;21.70;31.20;;;;;;5088510;28;19944;-74
2023/01/28 10:38:12;;;;;;;;;;;21.70;31.20;;;;;;5088335;28;19921;-73
2023/01/28 10:40:39;;;;;;;;;;;21.70;31.20;;;;;;5088005;28;20391;-73
2023/01/28 10:43:05;;;;;;;;;;;21.80;31.10;;;;;;5087931;28;20383;-73
2023/01/28 10:48:16;;;;;;;;;;;21.80;31.20;;;;;;5126517;27;1889816;-73
2023/01/28 10:51:00;;;;;;;;;;;21.70;31.10;;;;;;5174761;27;19919;-74
2023/01/28 10:53:46;;;;;;;;;;;21.70;31.10;;;;;;5174991;27;19946;-73
2023/01/28 10:59:14;;;;;;;;;;;21.80;31.10;;;;;;5110221;27;19918;-73
2023/01/28 11:01:41;;;;;;;;;;;21.80;31.10;;;;;;5109086;28;19920;-74
2023/01/28 11:04:13;;;;;;;;;;;21.80;31.10;;;;;;5108835;28;19955;-74
2023/01/28 11:06:39;;;;;;;;;;;21.80;31.10;;;;;;5108832;28;20447;-74
2023/01/28 11:09:19;;;;;;;;;;;21.80;31.00;;;;;;5108759;28;19920;-75
2023/01/28 11:11:44;;;;;;;;;;;21.80;31.00;;;;;;5109223;28;19920;-74
2023/01/28 11:14:18;;;;;;;;;;;21.80;31.00;;;;;;5108993;28;19927;-74
2023/01/28 11:16:43;;;;;;;;;;;21.80;31.00;;;;;;5142732;27;20298;-75
2023/01/28 11:19:12;;;;;;;;;;;21.80;31.10;;;;;;5109806;28;19919;-75
2023/01/28 11:21:37;;;;;;;;;;;21.80;31.00;;;;;;5107796;28;19927;-75
2023/01/28 11:24:05;;;;;;;;;;;21.80;31.00;;;;;;5108549;28;19959;-74
2023/01/28 11:26:33;;;;;;;;;;;21.80;31.00;;;;;;5109755;28;19920;-74
2023/01/28 11:28:59;;;;;;;;;;;21.80;31.00;;;;;;5109689;28;19920;-74
2023/01/28 11:31:25;;;;;;;;;;;21.80;31.10;;;;;;5108411;28;20283;-75
2023/01/28 11:34:06;;;;;;;;;;;21.80;31.00;;;;;;5109542;28;20306;-74
2023/01/28 11:36:32;;;;;;;;;;;21.80;31.00;;;;;;5108301;28;20169;-75
2023/01/28 11:39:04;;;;;;;;;;;21.80;31.10;;;;;;5107020;28;20077;-74
2023/01/28 11:41:32;;;;;;;;;;;21.80;31.10;;;;;;5109417;28;20394;-74
2023/01/28 11:43:59;;;;;;;;;;;21.80;31.10;;;;;;5108462;28;19920;-74
2023/01/28 12:00:31;;;;;;;;;;;21.50;31.30;;;;;;5089909;28;19913;-74
2023/01/28 12:03:17;;;;;;;;;;;21.50;31.30;;;;;;5089877;28;19943;-74
2023/01/28 12:05:48;;;;;;;;;;;21.50;31.40;;;;;;5088232;28;19950;-74
2023/01/28 12:11:17;;;;;;;;;;;21.50;31.40;;;;;;5110299;27;19919;-74
2023/01/28 12:14:03;;;;;;;;;;;21.60;31.40;;;;;;5108714;28;19963;-74
2023/01/28 12:33:07;;;;;;;;;;;21.60;31.30;;;;;;5089954;28;19913;-75
2023/01/28 12:35:43;;;;;;;;;;;21.70;31.30;;;;;;5088902;28;19943;-74
2023/01/28 12:41:10;;;;;;;;;;;21.70;31.30;;;;;;5110227;27;19912;-74
2023/01/28 12:43:56;;;;;;;;;;;21.70;31.30;;;;;;5108559;28;19920;-74
2023/01/28 12:46:41;;;;;;;;;;;21.70;31.30;;;;;;5108798;28;20010;-74
2023/01/28 12:49:27;;;;;;;;;;;21.70;31.30;;;;;;5143198;27;20445;-75
2023/01/28 12:52:06;;;;;;;;;;;21.60;31.20;;;;;;5143229;27;19926;-73
2023/01/28 12:54:37;;;;;;;;;;;21.70;31.30;;;;;;5109020;28;20286;-75
2023/01/28 12:57:02;;;;;;;;;;;21.70;31.20;;;;;;5108990;28;19920;-74
2023/01/28 12:59:30;;;;;;;;;;;21.70;31.30;;;;;;5108033;28;20429;-74
2023/01/28 13:07:19;;;;;;;;;;;21.60;31.20;;;;;;5089821;28;19919;-74
2023/01/28 13:10:05;;;;;;;;;;;21.70;31.30;;;;;;5088547;28;19927;-74
2023/01/28 13:12:31;;;;;;;;;;;21.70;31.30;;;;;;5088517;28;19970;-76
2023/01/28 13:14:58;;;;;;;;;;;21.70;31.30;;;;;;5088768;28;19920;-74
2023/01/28 13:20:24;;;;;;;;;;;21.80;31.20;;;;;;5090208;28;19912;-76
2023/01/28 13:22:59;;;;;;;;;;;21.80;31.20;;;;;;5088590;28;20393;-74
2023/01/28 13:25:27;;;;;;;;;;;21.80;31.10;;;;;;5088574;28;19932;-74
2023/01/28 13:27:55;;;;;;;;;;;21.80;31.10;;;;;;5088402;28;19934;-74
2023/01/28 13:30:23;;;;;;;;;;;21.80;31.10;;;;;;5088820;28;19924;-74
2023/01/28 13:33:05;;;;;;;;;;;21.80;31.10;;;;;;5088523;28;19967;-74
2023/01/28 13:38:17;;;;;;;;;;;21.80;31.10;;;;;;5110334;27;19912;-75
2023/01/28 13:40:43;;;;;;;;;;;21.80;31.10;;;;;;5092170;28;20362;-75
2023/01/28 13:43:26;;;;;;;;;;;21.80;31.10;;;;;;5108858;28;19926;-74
2023/01/28 13:45:56;;;;;;;;;;;21.80;31.10;;;;;;5092064;28;20015;-74
2023/01/28 13:48:41;;;;;;;;;;;21.80;31.10;;;;;;5092019;28;19942;-74
2023/01/28 13:51:15;;;;;;;;;;;21.80;31.10;;;;;;5071564;28;19920;-75
2023/01/28 13:53:44;;;;;;;;;;;21.80;31.10;;;;;;5088325;28;20383;-74
2023/01/28 13:56:19;;;;;;;;;;;21.90;31.20;;;;;;5071494;28;19924;-74
2023/01/28 13:59:08;;;;;;;;;;;21.90;31.10;;;;;;5055229;28;19964;-74
2023/01/28 14:01:50;;;;;;;;;;;21.90;31.20;;;;;;5071278;28;19920;-74
2023/01/28 14:12:43;;;;;;;;;;;21.80;31.10;;;;;;5130841;27;19918;-75
2023/01/28 14:15:29;;;;;;;;;;;21.80;31.10;;;;;;5129404;28;20014;-75
2023/01/28 14:17:56;;;;;;;;;;;21.80;31.20;;;;;;5129225;28;20394;-75
2023/01/28 14:20:24;;;;;;;;;;;21.80;31.20;;;;;;5130874;27;20281;-75
2023/01/28 14:22:50;;;;;;;;;;;21.80;31.20;;;;;;5129689;28;19959;-75
2023/01/28 14:25:27;;;;;;;;;;;21.80;31.30;;;;;;5164098;27;19964;-75
2023/01/28 14:27:53;;;;;;;;;;;21.70;31.30;;;;;;5129276;28;19972;-74
2023/01/28 14:30:39;;;;;;;;;;;21.70;31.30;;;;;;5129542;28;19927;-75
2023/01/28 14:33:08;;;;;;;;;;;21.70;31.40;;;;;;5128693;28;19919;-75
2023/01/28 14:35:36;;;;;;;;;;;21.60;31.40;;;;;;5130306;27;20480;-75
2023/01/28 14:38:06;;;;;;;;;;;21.70;31.50;;;;;;5129122;28;19926;-75
2023/01/28 14:40:33;;;;;;;;;;;21.60;31.40;;;;;;5129189;28;20409;-74
2023/01/28 14:42:59;;;;;;;;;;;21.60;31.50;;;;;;5130202;27;20006;-74
2023/01/28 14:51:11;;;;;;;;;;;21.50;31.50;;;;;;5127440;27;1867082;-74
2023/01/28 14:56:27;;;;;;;;;;;21.60;31.60;;;;;;5110148;27;19912;-74
2023/01/28 14:58:56;;;;;;;;;;;21.50;31.60;;;;;;5143278;27;19926;-74
2023/01/28 15:01:23;;;;;;;;;;;21.50;31.70;;;;;;5108478;28;19920;-75
2023/01/28 15:03:48;;;;;;;;;;;21.50;31.70;;;;;;5107850;28;19924;-75
2023/01/28 15:06:16;;;;;;;;;;;21.50;31.70;;;;;;5109770;28;19986;-75
2023/01/28 15:08:41;;;;;;;;;;;21.60;31.70;;;;;;5108781;28;19969;-75
2023/01/28 15:11:10;;;;;;;;;;;21.50;31.70;;;;;;5109023;28;19924;-75
2023/01/28 15:13:38;;;;;;;;;;;21.60;31.80;;;;;;5108695;28;19945;-75
2023/01/28 15:16:04;;;;;;;;;;;21.60;31.70;;;;;;5107673;28;19928;-76
2023/01/28 15:21:10;;;;;;;;;;;21.50;31.70;;;;;;5110049;27;19940;-75
2023/01/28 15:23:38;;;;;;;;;;;21.60;31.70;;;;;;5110275;28;20290;-75
2023/01/28 15:26:12;;;;;;;;;;;21.60;31.70;;;;;;5092745;28;19971;-75
2023/01/28 15:28:38;;;;;;;;;;;21.70;31.70;;;;;;5108889;28;19949;-75
2023/01/28 15:31:17;;;;;;;;;;;21.60;31.60;;;;;;5109076;28;19955;-75
2023/01/28 15:33:43;;;;;;;;;;;21.60;31.60;;;;;;5109055;28;19973;-75
2023/01/28 15:36:08;;;;;;;;;;;21.70;31.70;;;;;;5108374;28;20322;-75
2023/01/28 15:38:34;;;;;;;;;;;21.70;31.60;;;;;;5109933;28;19920;-75
2023/01/28 15:41:01;;;;;;;;;;;21.80;31.60;;;;;;5108562;28;19924;-75
2023/01/28 15:43:29;;;;;;;;;;;21.70;31.60;;;;;;5108619;28;19920;-75
2023/01/28 15:45:56;;;;;;;;;;;21.70;31.60;;;;;;5108702;28;20284;-75
2023/01/28 15:48:24;;;;;;;;;;;21.70;31.60;;;;;;5108765;28;19920;-75
2023/01/28 15:50:58;;;;;;;;;;;21.70;31.60;;;;;;5108481;28;19927;-75
2023/01/28 15:53:24;;;;;;;;;;;21.70;32.30;;;;;;5109533;28;20363;-75
2023/01/28 15:55:50;;;;;;;;;;;21.70;31.60;;;;;;5108410;28;19920;-75
2023/01/28 15:58:18;;;;;;;;;;;21.80;31.60;;;;;;5109586;28;19920;-75
2023/01/28 16:00:44;;;;;;;;;;;21.80;31.60;;;;;;5107269;28;20391;-74
2023/01/28 16:03:18;;;;;;;;;;;21.80;31.60;;;;;;5100143;28;19919;-76
2023/01/28 16:05:52;;;;;;;;;;;21.80;31.60;;;;;;5092674;28;19920;-77
2023/01/28 16:08:24;;;;;;;;;;;21.80;31.60;;;;;;5089040;28;20553;-77
2023/01/28 16:10:51;;;;;;;;;;;21.70;31.50;;;;;;5088136;28;19927;-75
2023/01/28 16:13:21;;;;;;;;;;;21.70;31.60;;;;;;5089127;28;20375;-73
2023/01/28 16:15:48;;;;;;;;;;;21.70;31.60;;;;;;5088886;28;19927;-76
2023/01/28 16:18:34;;;;;;;;;;;21.80;31.70;;;;;;5121959;28;20282;-76
2023/01/28 16:21:00;;;;;;;;;;;21.70;31.60;;;;;;5087177;28;20018;-75
2023/01/28 16:23:26;;;;;;;;;;;21.70;31.70;;;;;;5087395;28;20039;-75